createdAt,value
2022-09-04T00:02:51.329Z,96793.94
2022-09-04T00:05:31.213Z,96767.16
2022-09-04T00:08:24.772Z,96806.72
2022-09-04T00:11:12.113Z,96806.38
2022-09-04T00:13:46.414Z,96745.94
2022-09-04T00:16:51.084Z,96725.72
2022-09-04T00:19:39.614Z,96818.56
2022-09-04T00:22:19.053Z,96819.09
2022-09-04T00:24:51.542Z,96788.47
2022-09-04T00:27:30.212Z,96749.06
2022-09-04T00:30:08.257Z,96756.41
2022-09-04T00:32:38.788Z,96780.91
2022-09-04T00:35:11.280Z,96827.78
2022-09-04T00:37:47.535Z,96769.69
2022-09-04T00:40:16.946Z,96818.34
2022-09-04T00:43:03.935Z,96825.84
2022-09-04T00:45:33.704Z,96820.19
2022-09-04T00:48:03.380Z,96819.19
2022-09-04T00:51:07.540Z,96822.28
2022-09-04T00:53:46.353Z,96827.47
2022-09-04T00:56:50.658Z,96825.69
2022-09-04T00:59:42.529Z,96830.91
2022-09-04T01:02:17.250Z,96765.47
2022-09-04T01:04:49.512Z,96728.97
2022-09-04T01:07:35.375Z,96831.41
2022-09-04T01:10:29.436Z,96739.25
2022-09-04T01:13:09.226Z,96834.66
2022-09-04T01:15:55.279Z,96832.72
2022-09-04T01:18:44.206Z,96827.34
2022-09-04T01:21:18.889Z,96779.16
2022-09-04T01:23:58.237Z,96712.13
2022-09-04T01:26:40.643Z,96713.06
2022-09-04T01:29:16.272Z,96822.66
2022-09-04T01:31:56.991Z,96817.44
2022-09-04T01:34:45.326Z,96804.41
2022-09-04T01:37:18.201Z,96555.50
2022-09-04T01:39:46.895Z,96770.53
2022-09-04T01:42:27.512Z,96781.16
2022-09-04T01:44:54.178Z,96783.75
2022-09-04T01:47:31.497Z,96813.19
2022-09-04T01:50:08.336Z,96790.41
2022-09-04T01:53:32.967Z,96811.22
2022-09-04T01:56:26.012Z,96806.03
2022-09-04T01:59:33.173Z,96813.50
2022-09-04T02:02:06.143Z,96800.81
2022-09-04T02:04:47.965Z,96802.44
2022-09-04T02:07:33.235Z,96741.38
2022-09-04T02:10:21.520Z,96810.72
2022-09-04T02:12:58.481Z,96783.03
2022-09-04T02:16:02.732Z,96756.53
2022-09-04T02:18:36.214Z,96807.34
2022-09-04T02:21:08.225Z,96795.09
2022-09-04T02:23:40.572Z,96754.09
2022-09-04T02:26:16.905Z,96601.16
2022-09-04T02:29:20.564Z,96810.75
2022-09-04T02:32:24.323Z,96746.31
2022-09-04T02:35:11.737Z,96806.34
2022-09-04T02:38:03.106Z,96792.38
2022-09-04T02:40:41.724Z,96697.97
2022-09-04T02:43:30.212Z,96796.59
2022-09-04T02:46:28.850Z,96618.84
2022-09-04T02:49:02.421Z,96794.00
2022-09-04T02:51:50.190Z,96793.50
2022-09-04T02:54:40.835Z,96795.28
2022-09-04T02:57:44.155Z,96751.00
2022-09-04T03:00:18.319Z,96710.13
2022-09-04T03:03:12.757Z,96789.56
2022-09-04T03:06:33.672Z,96759.59
2022-09-04T03:09:03.630Z,96671.16
2022-09-04T03:11:39.804Z,96730.44
2022-09-04T03:14:24.679Z,96756.97
2022-09-04T03:16:55.892Z,96753.22
2022-09-04T03:19:33.457Z,96788.72
2022-09-04T03:22:18.988Z,96777.19
2022-09-04T03:24:48.433Z,96790.53
2022-09-04T03:27:15.089Z,96553.63
2022-09-04T03:29:41.598Z,96805.34
2022-09-04T03:32:18.072Z,96725.69
2022-09-04T03:34:49.229Z,96696.56
2022-09-04T03:37:38.512Z,96805.81
2022-09-04T03:40:29.557Z,96814.41
2022-09-04T03:43:22.847Z,96816.84
2022-09-04T03:46:01.468Z,96810.38
2022-09-04T03:48:37.971Z,96780.56
2022-09-04T03:51:04.464Z,96812.50
2022-09-04T03:54:24.177Z,96816.72
2022-09-04T03:57:00.093Z,96819.97
2022-09-04T03:59:37.907Z,96828.41
2022-09-04T04:02:16.813Z,96384.25
2022-09-04T04:04:52.512Z,96819.34
2022-09-04T04:07:24.227Z,96824.88
2022-09-04T04:10:33.489Z,96822.91
2022-09-04T04:13:12.354Z,96808.63
2022-09-04T04:16:17.606Z,96825.88
2022-09-04T04:19:10.845Z,96825.38
2022-09-04T04:21:56.152Z,96773.44
2022-09-04T04:24:30.147Z,96836.31
2022-09-04T04:27:05.725Z,96828.84
2022-09-04T04:29:54.238Z,96830.97
2022-09-04T04:32:43.983Z,96803.41
2022-09-04T04:35:16.576Z,96842.00
2022-09-04T04:37:59.346Z,96794.00
2022-09-04T04:41:03.034Z,96856.69
2022-09-04T04:43:41.041Z,96858.13
2022-09-04T04:46:20.257Z,96865.63
2022-09-04T04:49:04.396Z,96866.44
2022-09-04T04:51:40.787Z,96865.47
2022-09-04T04:54:09.897Z,96871.66
2022-09-04T04:56:55.440Z,96875.06
2022-09-04T04:59:27.491Z,96875.25
2022-09-04T05:02:20.438Z,96892.66
2022-09-04T05:05:18.652Z,96891.69
2022-09-04T05:07:53.521Z,96901.13
2022-09-04T05:10:35.441Z,96910.25
2022-09-04T05:13:11.065Z,96907.47
2022-09-04T05:16:09.385Z,96907.28
2022-09-04T05:18:45.488Z,96922.63
2022-09-04T05:21:36.405Z,96922.63
2022-09-04T05:24:17.631Z,96930.25
2022-09-04T05:27:16.336Z,96834.66
2022-09-04T05:29:54.899Z,96935.81
2022-09-04T05:32:55.854Z,96935.63
2022-09-04T05:35:43.808Z,96938.06
2022-09-04T05:38:23.169Z,96901.44
2022-09-04T05:40:54.077Z,96946.22
2022-09-04T05:43:23.524Z,96945.13
2022-09-04T05:45:53.345Z,96949.88
2022-09-04T05:48:30.643Z,96925.38
2022-09-04T05:51:12.810Z,96961.44
2022-09-04T05:53:49.870Z,96928.16
2022-09-04T05:56:40.130Z,96970.22
2022-09-04T05:59:19.929Z,96974.47
2022-09-04T06:02:04.623Z,96980.81
2022-09-04T06:04:40.571Z,96981.63
2022-09-04T06:07:07.093Z,96987.34
2022-09-04T06:09:49.293Z,96878.66
2022-09-04T06:12:24.864Z,96991.72
2022-09-04T06:15:09.611Z,97000.69
2022-09-04T06:17:36.265Z,97003.78
2022-09-04T06:20:08.871Z,97009.50
2022-09-04T06:23:03.056Z,97008.03
2022-09-04T06:26:04.114Z,97021.69
2022-09-04T06:28:46.146Z,97023.00
2022-09-04T06:31:18.941Z,97030.53
2022-09-04T06:34:01.297Z,97026.59
2022-09-04T06:36:33.898Z,97020.41
2022-09-04T06:39:15.647Z,97031.50
2022-09-04T06:42:21.697Z,96896.56
2022-09-04T06:44:48.243Z,97036.22
2022-09-04T06:47:33.280Z,97039.00
2022-09-04T06:50:18.991Z,96990.25
2022-09-04T06:52:56.090Z,97032.63
2022-09-04T06:55:31.004Z,96949.63
2022-09-04T06:58:15.783Z,97039.97
2022-09-04T07:01:02.476Z,96976.72
2022-09-04T07:03:37.584Z,96936.63
2022-09-04T07:06:44.837Z,97038.81
2022-09-04T07:09:20.372Z,96942.94
2022-09-04T07:12:10.598Z,97050.06
2022-09-04T07:15:08.148Z,97032.97
2022-09-04T07:17:39.492Z,96962.19
2022-09-04T07:20:08.417Z,97040.28
2022-09-04T07:22:57.881Z,96933.69
2022-09-04T07:25:44.671Z,97008.03
2022-09-04T07:28:29.970Z,97040.31
2022-09-04T07:30:59.613Z,97052.53
2022-09-04T07:33:51.021Z,97036.03
2022-09-04T07:36:41.812Z,97044.03
2022-09-04T07:39:17.285Z,96965.97
2022-09-04T07:41:53.593Z,97053.34
2022-09-04T07:44:46.864Z,97047.81
2022-09-04T07:47:46.702Z,97057.75
2022-09-04T07:50:18.643Z,97055.78
2022-09-04T07:53:11.179Z,97056.25
2022-09-04T07:55:42.123Z,96994.97
2022-09-04T07:58:20.359Z,97058.38
2022-09-04T08:01:26.617Z,97070.59
2022-09-04T08:03:56.326Z,97063.91
2022-09-04T08:06:39.515Z,97074.69
2022-09-04T08:09:34.121Z,97078.41
2022-09-04T08:12:19.357Z,97082.16
2022-09-04T08:14:56.643Z,97068.13
2022-09-04T08:17:51.046Z,97084.28
2022-09-04T08:20:24.457Z,97016.13
2022-09-04T08:23:24.613Z,97027.19
2022-09-04T08:25:54.070Z,97085.03
2022-09-04T08:28:33.511Z,97001.59
2022-09-04T08:31:21.944Z,97031.56
2022-09-04T08:34:30.511Z,97048.63
2022-09-04T08:37:00.071Z,97082.69
2022-09-04T08:39:38.944Z,97090.66
2022-09-04T08:42:20.059Z,97087.69
2022-09-04T08:45:24.158Z,97091.59
2022-09-04T08:48:08.121Z,97093.88
2022-09-04T08:50:47.153Z,97093.84
2022-09-04T08:53:28.850Z,97086.94
2022-09-04T08:56:03.420Z,97044.38
2022-09-04T08:58:45.651Z,97087.16
2022-09-04T09:01:42.696Z,97092.13
2022-09-04T09:04:43.934Z,97083.19
2022-09-04T09:08:07.237Z,97089.22
2022-09-04T09:11:05.851Z,96992.28
2022-09-04T09:14:11.244Z,97064.75
2022-09-04T09:16:56.617Z,97095.16
2022-09-04T09:19:46.007Z,97108.44
2022-09-04T09:22:44.663Z,97098.97
2022-09-04T09:25:14.751Z,97106.97
2022-09-04T09:27:59.738Z,97108.56
2022-09-04T09:30:26.461Z,96945.59
2022-09-04T09:32:59.174Z,97107.28
2022-09-04T09:35:55.868Z,97108.69
2022-09-04T09:38:44.297Z,97099.03
2022-09-04T09:41:25.953Z,97095.31
2022-09-04T09:44:04.646Z,97102.56
2022-09-04T09:47:03.121Z,97088.72
2022-09-04T09:49:51.857Z,97103.94
2022-09-04T09:52:34.842Z,97068.06
2022-09-04T09:55:42.195Z,97020.50
2022-09-04T09:58:30.768Z,97105.88
2022-09-04T10:01:19.282Z,97101.88
2022-09-04T10:03:59.447Z,97084.44
2022-09-04T10:06:44.938Z,97115.31
2022-09-04T10:09:40.957Z,97120.38
2022-09-04T10:12:45.265Z,97123.22
2022-09-04T10:15:49.810Z,97114.69
2022-09-04T10:18:41.439Z,97122.19
2022-09-04T10:21:50.110Z,97118.91
2022-09-04T10:24:29.350Z,97123.97
2022-09-04T10:27:23.122Z,97131.19
2022-09-04T10:30:01.662Z,97109.41
2022-09-04T10:32:33.220Z,97127.09
2022-09-04T10:35:03.555Z,97130.31
2022-09-04T10:37:39.195Z,97130.25
2022-09-04T10:40:42.877Z,97132.63
2022-09-04T10:43:29.838Z,97133.63
2022-09-04T10:46:35.888Z,97132.56
2022-09-04T10:49:08.620Z,97132.75
2022-09-04T10:52:00.285Z,97147.53
2022-09-04T10:54:48.203Z,97141.28
2022-09-04T10:58:06.021Z,97142.66
2022-09-04T11:00:40.107Z,97126.28
2022-09-04T11:03:26.229Z,97141.91
2022-09-04T11:06:11.137Z,97083.41
2022-09-04T11:09:09.313Z,97096.28
2022-09-04T11:12:00.729Z,97132.94
2022-09-04T11:14:54.714Z,97146.53
2022-09-04T11:17:59.829Z,97147.34
2022-09-04T11:20:50.887Z,97141.31
2022-09-04T11:23:18.503Z,97154.72
2022-09-04T11:26:23.621Z,97149.72
2022-09-04T11:29:20.458Z,97150.75
2022-09-04T11:32:21.916Z,97134.53
2022-09-04T11:35:00.672Z,97163.53
2022-09-04T11:38:02.450Z,97096.72
2022-09-04T11:41:15.838Z,97114.22
2022-09-04T11:44:15.126Z,97144.78
2022-09-04T11:47:00.036Z,97151.25
2022-09-04T11:49:26.621Z,97147.03
2022-09-04T11:52:23.933Z,97106.44
2022-09-04T11:55:05.927Z,97148.31
2022-09-04T11:58:03.189Z,97148.16
2022-09-04T12:01:16.342Z,97113.16
2022-09-04T12:03:54.708Z,97140.25
2022-09-04T12:06:35.093Z,97137.88
2022-09-04T12:09:15.500Z,97069.56
2022-09-04T12:12:11.674Z,97152.72
2022-09-04T12:14:53.456Z,97146.88
2022-09-04T12:17:48.384Z,97108.53
2022-09-04T12:20:30.981Z,97151.34
2022-09-04T12:23:29.582Z,97110.56
2022-09-04T12:26:01.879Z,97164.88
2022-09-04T12:29:06.530Z,97169.94
2022-09-04T12:32:00.649Z,97163.66
2022-09-04T12:34:45.919Z,97169.47
2022-09-04T12:37:37.955Z,97175.47
2022-09-04T12:40:30.631Z,97176.19
2022-09-04T12:43:16.539Z,97178.34
2022-09-04T12:46:14.463Z,97182.16
2022-09-04T12:49:12.285Z,97174.59
2022-09-04T12:51:50.286Z,97154.38
2022-09-04T12:54:43.337Z,97159.09
2022-09-04T12:57:16.075Z,97173.50
2022-09-04T12:59:58.231Z,97177.69
2022-09-04T13:02:38.161Z,97113.50
2022-09-04T13:05:26.454Z,97166.94
2022-09-04T13:08:33.962Z,97070.69
2022-09-04T13:11:18.869Z,97168.59
2022-09-04T13:13:46.075Z,97163.59
2022-09-04T13:16:33.347Z,97172.34
2022-09-04T13:19:13.383Z,97147.53
2022-09-04T13:22:06.740Z,97181.66
2022-09-04T13:25:02.794Z,97183.69
2022-09-04T13:27:38.929Z,97113.97
2022-09-04T13:30:20.798Z,97169.47
2022-09-04T13:32:53.136Z,96877.63
2022-09-04T13:35:36.777Z,97138.66
2022-09-04T13:38:44.090Z,97184.53
2022-09-04T13:41:16.398Z,97183.28
2022-09-04T13:43:52.022Z,97179.63
2022-09-04T13:46:20.988Z,97115.09
2022-09-04T13:48:52.321Z,97192.22
2022-09-04T13:51:29.782Z,97122.22
2022-09-04T13:54:17.754Z,97189.81
2022-09-04T13:56:53.346Z,97097.00
2022-09-04T13:59:20.712Z,97185.56
2022-09-04T14:01:51.002Z,97142.13
2022-09-04T14:04:23.794Z,97094.19
2022-09-04T14:06:50.542Z,97059.31
2022-09-04T14:09:17.193Z,97090.84
2022-09-04T14:12:10.145Z,97168.59
2022-09-04T14:15:10.982Z,97169.84
2022-09-04T14:18:19.136Z,97163.56
2022-09-04T14:21:01.148Z,97144.72
2022-09-04T14:23:47.276Z,96918.81
2022-09-04T14:26:32.953Z,97161.56
2022-09-04T14:29:33.337Z,97114.50
2022-09-04T14:32:10.752Z,97067.47
2022-09-04T14:35:02.342Z,97085.56
2022-09-04T14:37:55.009Z,97134.88
2022-09-04T14:40:30.146Z,97047.97
2022-09-04T14:43:37.725Z,97159.88
2022-09-04T14:46:10.592Z,97164.75
2022-09-04T14:48:40.724Z,97126.84
2022-09-04T14:51:31.002Z,97155.88
2022-09-04T14:53:59.004Z,97151.06
2022-09-04T14:56:30.975Z,97164.88
2022-09-04T14:59:11.216Z,97060.19
2022-09-04T15:01:54.790Z,97102.78
2022-09-04T15:04:24.279Z,97075.63
2022-09-04T15:07:11.315Z,97071.38
2022-09-04T15:09:39.371Z,97128.56
2022-09-04T15:12:26.307Z,97177.91
2022-09-04T15:15:18.068Z,97177.13
2022-09-04T15:17:53.725Z,97152.09
2022-09-04T15:20:25.394Z,97093.66
2022-09-04T15:22:54.974Z,97169.00
2022-09-04T15:25:58.140Z,97181.56
2022-09-04T15:28:30.711Z,97088.78
2022-09-04T15:31:15.577Z,97173.19
2022-09-04T15:33:43.257Z,97069.06
2022-09-04T15:36:22.820Z,97162.38
2022-09-04T15:38:56.300Z,97170.53
2022-09-04T15:41:43.213Z,97132.94
2022-09-04T15:44:42.197Z,97185.88
2022-09-04T15:47:17.135Z,97180.03
2022-09-04T15:49:51.575Z,97183.44
2022-09-04T15:53:15.568Z,97187.25
2022-09-04T15:55:44.500Z,97188.25
2022-09-04T15:58:19.717Z,96934.09
2022-09-04T16:01:17.048Z,97200.16
2022-09-04T16:04:07.367Z,97192.69
2022-09-04T16:07:19.666Z,97192.25
2022-09-04T16:09:53.380Z,97103.66
2022-09-04T16:12:27.997Z,97198.69
2022-09-04T16:15:09.940Z,97188.94
2022-09-04T16:17:47.859Z,97161.03
2022-09-04T16:20:33.406Z,97105.31
2022-09-04T16:23:09.108Z,97111.50
2022-09-04T16:25:35.731Z,97196.69
2022-09-04T16:28:15.132Z,97152.91
2022-09-04T16:30:47.179Z,97127.50
2022-09-04T16:33:34.140Z,97184.50
2022-09-04T16:36:08.203Z,97195.06
2022-09-04T16:39:21.560Z,97195.66
2022-09-04T16:41:55.007Z,96972.75
2022-09-04T16:44:44.532Z,97205.28
2022-09-04T16:47:45.865Z,97201.09
2022-09-04T16:50:27.939Z,97192.28
2022-09-04T16:53:13.760Z,97214.84
2022-09-04T16:56:02.102Z,97126.44
2022-09-04T16:58:46.420Z,97214.00
2022-09-04T17:01:28.351Z,97106.75
2022-09-04T17:04:14.526Z,97220.34
2022-09-04T17:07:02.812Z,97224.38
2022-09-04T17:09:57.536Z,97226.34
2022-09-04T17:12:52.652Z,97192.38
2022-09-04T17:15:53.983Z,97179.38
2022-09-04T18:17:11.942Z,97287.81
2022-09-04T18:54:41.949Z,97180.13
2022-09-04T18:57:25.610Z,97276.88
2022-09-04T19:00:08.734Z,97218.28
2022-09-04T19:02:53.215Z,97262.00
2022-09-04T19:05:20.468Z,97318.81
2022-09-04T19:07:56.855Z,97226.78
2022-09-04T19:10:34.091Z,97223.22
2022-09-04T19:13:04.482Z,97130.63
2022-09-04T19:15:36.376Z,97136.34
2022-09-04T19:18:14.778Z,97331.63
2022-09-04T19:20:48.307Z,97175.66
2022-09-04T19:23:22.432Z,97161.28
2022-09-04T19:25:54.734Z,97181.06
2022-09-04T19:28:27.585Z,97352.94
2022-09-04T19:31:06.058Z,97311.94
2022-09-04T19:33:53.677Z,97329.09
2022-09-04T19:36:55.089Z,97327.47
2022-09-04T19:45:55.528Z,97199.00
2022-09-04T19:46:05.269Z,97110.53
2022-09-04T19:46:11.289Z,97178.41
2022-09-04T19:48:32.137Z,97186.25
2022-09-04T19:53:31.576Z,97130.72
2022-09-04T19:53:53.728Z,96967.38
2022-09-04T19:56:30.143Z,97144.91
2022-09-04T19:59:03.558Z,97217.81
2022-09-04T20:01:44.598Z,97274.81
2022-09-04T20:04:20.195Z,97240.31
2022-09-04T20:06:47.680Z,97346.94
2022-09-04T20:09:26.186Z,97259.00
2022-09-04T20:12:13.268Z,97180.94
2022-09-04T20:14:50.419Z,97184.75
2022-09-04T20:17:29.378Z,97330.16
2022-09-04T20:20:06.544Z,97203.56
2022-09-04T20:23:33.742Z,97342.25
2022-09-04T20:25:59.659Z,97335.66
2022-09-04T20:28:27.700Z,97337.78
2022-09-04T20:31:36.138Z,97346.69
2022-09-04T20:34:23.104Z,97345.34
2022-09-04T20:36:54.034Z,97272.16
2022-09-04T20:39:49.136Z,97291.81
2022-09-04T20:42:44.198Z,97106.13
2022-09-04T20:47:46.279Z,97196.59
2022-09-04T20:52:52.985Z,97335.53
2022-09-04T20:52:53.678Z,97186.97
2022-09-04T20:54:39.014Z,97363.38
2022-09-04T21:02:28.336Z,97261.53
2022-09-04T21:03:15.078Z,97189.81
2022-09-04T21:03:29.637Z,97358.06
2022-09-04T21:06:10.547Z,97212.56
2022-09-04T21:08:52.353Z,97362.63
2022-09-04T21:11:41.413Z,97366.84
2022-09-04T21:14:44.793Z,97371.63
2022-09-04T21:17:39.662Z,97208.84
2022-09-04T21:20:10.904Z,97206.09
2022-09-04T21:22:49.760Z,97372.47
2022-09-04T21:25:28.821Z,97372.03
2022-09-04T21:28:15.942Z,97376.41
2022-09-04T21:31:01.263Z,97370.88
2022-09-04T21:33:40.580Z,97375.28
2022-09-04T21:36:29.294Z,97146.31
2022-09-04T21:39:41.120Z,97382.91
2022-09-04T21:42:38.729Z,97382.25
2022-09-04T21:45:36.572Z,97383.88
2022-09-04T21:48:25.105Z,97227.94
2022-09-04T21:51:07.833Z,97391.25
2022-09-04T21:54:16.671Z,97388.63
2022-09-04T22:02:25.988Z,97395.47
2022-09-04T22:02:43.258Z,97266.66
2022-09-04T22:03:20.243Z,97305.47
2022-09-04T22:06:16.050Z,97389.66
2022-09-04T22:13:34.033Z,97287.91
2022-09-04T22:13:42.851Z,97167.22
2022-09-04T22:15:09.462Z,97175.78
2022-09-04T22:18:06.235Z,97389.69
2022-09-04T22:21:09.312Z,97394.25
2022-09-04T22:24:14.523Z,97390.47
2022-09-04T22:26:47.098Z,97392.22
2022-09-04T22:29:17.298Z,97395.28
2022-09-04T22:31:58.115Z,97396.38
2022-09-04T22:34:42.956Z,97406.00
2022-09-04T22:37:28.220Z,97399.31
2022-09-04T22:40:12.701Z,97402.38
2022-09-04T22:43:16.836Z,97282.53
2022-09-04T22:46:14.477Z,97402.31
2022-09-04T22:48:47.888Z,97400.69
2022-09-04T22:51:39.502Z,97407.38
2022-09-04T22:54:15.194Z,97407.38
2022-09-04T22:57:22.394Z,97371.03
2022-09-04T23:00:04.201Z,97411.31
2022-09-04T23:03:04.164Z,97419.63
2022-09-04T23:05:42.228Z,97419.03
2022-09-04T23:13:41.993Z,97437.81
2022-09-04T23:13:46.233Z,97256.97
2022-09-04T23:14:24.623Z,97410.31
2022-09-04T23:16:51.693Z,97426.78
2022-09-04T23:24:11.409Z,97331.00
2022-09-04T23:26:42.534Z,97421.63
2022-09-04T23:26:50.364Z,97423.00
2022-09-04T23:29:22.564Z,97409.66
2022-09-04T23:32:13.362Z,97405.50
2022-09-04T23:35:14.311Z,97410.78
2022-09-04T23:38:09.963Z,97404.53
2022-09-04T23:40:55.535Z,97404.97
2022-09-04T23:43:33.589Z,97408.84
2022-09-04T23:46:27.734Z,97397.22
2022-09-04T23:49:06.617Z,97366.06
2022-09-04T23:51:45.853Z,97401.69
2022-09-04T23:54:25.718Z,97229.09
2022-09-04T23:57:41.898Z,97392.97
